»·PEaware :: N172BK KTNP-KVGT

N172BK :: KTNP-KVGT

FLIGHT INFORMATION

Flight Status: Arrived
Operator: Privately registered:
United States
More flights under this callsign
Pilot: Jari J. (4222)
Aircraft: CESSNA 172 SKYHAWK
(C172)
More flights by this aircraft type
Origin: KTNP Twentynine Palms
United States
Destination: KVGT North Las Vegas
United States
More flights between these airports :: More routes between these airports
Route: TNP´V514 GFS CLARR
File this flight plan on PilotEdge
Remarks:
Altitude:
(Current/Filed)
7,000ft
Speed:
(Current/Filed)
128kts
Departed: 21-Jun-16 05:13 AM
Arrived: 21-Jun-16 06:33 AM
Distance/Time
Traveled:
0nm/1:20
Distance/Time
To Go:
Arrived

Flight Plot

Page will automatically refresh every two minutes.


Map Options




Map Legend


Flown Route
Filed Route
Departure Airport
Arrival Airport
Navaid (VOR, NDB)
Fix

Horizontal Profiles

Position Reports

Time Latitude Longitude Heading Altitude Ground
Speed
21-Jun-16 04:56 34.135869 -115.941879 180 1890ft 0kts
21-Jun-16 04:57 34.135844 -115.941862 179 1890ft 0kts
21-Jun-16 04:58 34.135821 -115.941847 179 1890ft 0kts
21-Jun-16 04:59 34.135819 -115.941847 179 1890ft 0kts
21-Jun-16 05:00 34.135816 -115.941847 179 1890ft 0kts
21-Jun-16 05:01 34.135813 -115.941847 179 1890ft 0kts
21-Jun-16 05:02 34.135809 -115.941847 179 1890ft 0kts
21-Jun-16 05:03 34.135806 -115.941847 179 1890ft 0kts
21-Jun-16 05:04 34.135803 -115.941847 179 1890ft 0kts
21-Jun-16 05:05 34.135800 -115.941847 179 1890ft 0kts
21-Jun-16 05:06 34.135354 -115.941539 171 1890ft 7kts
21-Jun-16 05:07 34.135252 -115.937677 88 1890ft 17kts
21-Jun-16 05:08 34.134864 -115.935194 179 1890ft 0kts
21-Jun-16 05:08 34.134659 -115.935199 182 1890ft 7kts
21-Jun-16 05:10 34.134079 -115.951148 266 2327ft 64kts
21-Jun-16 05:10 34.143786 -115.952106 87 2748ft 90kts
21-Jun-16 05:11 34.143087 -115.922613 100 3333ft 91kts
21-Jun-16 05:12 34.141054 -115.891264 101 3861ft 95kts
21-Jun-16 05:13 34.125618 -115.863306 111 4337ft 116kts
21-Jun-16 05:14 34.119941 -115.824770 100 4834ft 109kts
21-Jun-16 05:15 34.116138 -115.789046 100 5326ft 108kts
21-Jun-16 05:16 34.126630 -115.756513 41 5844ft 125kts
21-Jun-16 05:17 34.153147 -115.727155 42 6356ft 130kts
21-Jun-16 05:18 34.179231 -115.698029 41 6843ft 122kts
21-Jun-16 05:19 34.205321 -115.668879 41 6971ft 129kts
21-Jun-16 05:21 34.230684 -115.637839 45 6996ft 130kts
21-Jun-16 05:22 34.257619 -115.606541 41 6990ft 141kts
21-Jun-16 05:23 34.285433 -115.575346 41 6990ft 131kts
21-Jun-16 05:24 34.312358 -115.545162 41 7001ft 136kts
21-Jun-16 05:25 34.344194 -115.522318 17 7009ft 135kts
21-Jun-16 05:26 34.379455 -115.506841 17 6990ft 132kts
21-Jun-16 05:27 34.414096 -115.491918 17 6993ft 134kts
21-Jun-16 05:28 34.449442 -115.476670 16 6993ft 136kts
21-Jun-16 05:29 34.485252 -115.461829 16 6977ft 136kts
21-Jun-16 05:30 34.520531 -115.446818 17 6976ft 132kts
21-Jun-16 05:31 34.554200 -115.432366 16 6981ft 123kts
21-Jun-16 05:32 34.587350 -115.418216 16 6965ft 133kts
21-Jun-16 05:33 34.622136 -115.403199 17 6951ft 129kts
21-Jun-16 05:34 34.655892 -115.388677 17 6948ft 130kts
21-Jun-16 05:35 34.689871 -115.374031 17 6949ft 127kts
21-Jun-16 05:36 34.723730 -115.359454 17 6945ft 132kts
21-Jun-16 05:37 34.758128 -115.344594 17 6937ft 128kts
21-Jun-16 05:38 34.791183 -115.330321 17 6924ft 122kts
21-Jun-16 05:39 34.824060 -115.316173 17 6922ft 132kts
21-Jun-16 05:40 34.858227 -115.301382 16 6916ft 124kts
21-Jun-16 05:41 34.890621 -115.287402 16 6915ft 125kts
21-Jun-16 05:42 34.921714 -115.270480 22 6996ft 121kts
21-Jun-16 05:43 34.954237 -115.254811 17 6992ft 133kts
21-Jun-16 05:44 34.988182 -115.239986 16 6994ft 121kts
21-Jun-16 05:45 35.019813 -115.226323 16 6994ft 121kts
21-Jun-16 05:46 35.051988 -115.212345 19 6991ft 120kts
21-Jun-16 05:47 35.084123 -115.198342 17 6980ft 123kts
21-Jun-16 05:48 35.116778 -115.184168 17 6976ft 126kts
21-Jun-16 05:49 35.146556 -115.192847 317 6977ft 117kts
21-Jun-16 05:50 35.174806 -115.211489 336 7047ft 116kts
21-Jun-16 05:51 35.205781 -115.224537 336 7048ft 118kts
21-Jun-16 05:52 35.236414 -115.239591 337 7051ft 118kts
21-Jun-16 05:53 35.267094 -115.254792 337 7053ft 118kts
21-Jun-16 05:54 35.297808 -115.269780 336 7051ft 119kts
21-Jun-16 05:55 35.329114 -115.284335 337 7055ft 119kts
21-Jun-16 05:56 35.361800 -115.298571 337 7052ft 132kts
21-Jun-16 05:57 35.395905 -115.314015 336 7066ft 127kts
21-Jun-16 05:58 35.427617 -115.330851 332 7070ft 119kts
21-Jun-16 05:59 35.459075 -115.348583 332 7072ft 132kts
21-Jun-16 06:00 35.491592 -115.367164 332 7082ft 124kts
21-Jun-16 06:01 35.522562 -115.384906 331 7083ft 120kts
21-Jun-16 06:02 35.553981 -115.403455 331 7081ft 132kts
21-Jun-16 06:03 35.587289 -115.423441 331 7087ft 134kts
21-Jun-16 06:04 35.619331 -115.442773 331 7095ft 120kts
21-Jun-16 06:04 35.644212 -115.457798 331 7095ft 118kts
21-Jun-16 06:06 35.679944 -115.479616 331 7093ft 131kts
21-Jun-16 06:06 35.706671 -115.496157 330 7104ft 123kts
21-Jun-16 06:07 35.737554 -115.515363 330 7096ft 129kts
21-Jun-16 06:08 35.769627 -115.535543 330 7105ft 126kts
21-Jun-16 06:09 35.800843 -115.555310 330 7103ft 126kts
21-Jun-16 06:10 35.835020 -115.563335 351 7105ft 122kts
21-Jun-16 06:11 35.868575 -115.567455 351 7106ft 121kts
21-Jun-16 06:12 35.902732 -115.571780 351 7107ft 127kts
21-Jun-16 06:13 35.937768 -115.572340 6 7111ft 122kts
21-Jun-16 06:14 35.971902 -115.566082 7 7079ft 129kts
21-Jun-16 06:15 36.006546 -115.557788 35 7083ft 124kts
21-Jun-16 06:17 36.028893 -115.528076 54 7398ft 111kts
21-Jun-16 06:18 36.048267 -115.495437 53 7475ft 136kts
21-Jun-16 06:19 36.074388 -115.464305 33 7087ft 129kts
21-Jun-16 06:20 36.104429 -115.438859 33 6662ft 131kts
21-Jun-16 06:21 36.132110 -115.414062 39 5963ft 113kts
21-Jun-16 06:22 36.155612 -115.390072 39 5166ft 107kts
21-Jun-16 06:23 36.176714 -115.363836 45 4379ft 107kts
21-Jun-16 06:24 36.195742 -115.339770 45 4041ft 92kts
21-Jun-16 06:25 36.207777 -115.317582 75 3925ft 75kts
21-Jun-16 06:26 36.210669 -115.293201 83 3979ft 75kts
21-Jun-16 06:27 36.212012 -115.262630 85 3148ft 86kts
21-Jun-16 06:28 36.212646 -115.234701 86 2753ft 76kts
21-Jun-16 06:29 36.213191 -115.210175 87 2363ft 71kts
21-Jun-16 06:30 36.213341 -115.194848 144 2208ft 8kts
21-Jun-16 06:31 36.212875 -115.194991 250 2208ft 7kts
21-Jun-16 06:32 36.212779 -115.199399 268 2208ft 17kts
21-Jun-16 06:33 36.212326 -115.203385 233 2208ft 4kts
21-Jun-16 06:34 36.211483 -115.203725 148 2208ft 0kts
21-Jun-16 06:35 34.135869 -115.941881 180 1887ft 0kts

Navigation Log

Ident Type
Flight plan parsing failed, navigation log unavailable